Flight Track Log - Related Links

Times and Time Zones

All times are in EDT time to prevent confusion due to time zone crossing. See the AWE1435 flight status page for this flight to view local times or setup timezone preferences in your user account.

Time Position Orientation Groundspeed Altitude Reporting Facility
EDT Latitude Longitude Course Direction KTS MPH feet Rate Location/Type
Tue 11:13:46 AM 38.7833 -77.0333 256° West 186 214 3,000  Level Potomac TRACON
Tue 11:14:47 AM 38.7667 -77.1167 265° West 252 290 4,900 1,333 Climbing Potomac TRACON
Tue 11:15:16 AM 38.7636 -77.1597 232° Southwest 257 296 5,000 2,069 Climbing Washington Center
Tue 11:16:14 AM 38.7231 -77.2256 220° Southwest 269 310 7,900 2,824 Climbing Washington Center
Tue 11:17:15 AM 38.6639 -77.2881 219° Southwest 263 303 10,600 2,164 Climbing Washington Center
Tue 11:18:16 AM 38.6003 -77.3531 220° Southwest 279 321 12,300 2,182 Climbing Washington Center
Tue 11:19:16 AM 38.5367 -77.4203 218° Southwest 300 345 15,000 1,983 Climbing Washington Center
Tue 11:20:14 AM 38.4625 -77.4956 221° Southwest 321 369 16,200 1,373 Climbing Washington Center
Tue 11:21:14 AM 38.3819 -77.5861 230° Southwest 356 410 17,700 1,587 Climbing Washington Center
Tue 11:22:15 AM 38.3114 -77.6928 230° Southwest 388 447 19,400 1,672 Climbing Washington Center
Tue 11:23:16 AM 38.2361 -77.8069 229° Southwest 411 473 21,100 1,686 Climbing Washington Center
Tue 11:24:16 AM 38.1611 -77.9183 229° Southwest 424 488 22,800 1,017 Climbing Washington Center
Tue 11:25:14 AM 38.0839 -78.0319 229° Southwest 430 495 23,100 763 Climbing Washington Center
Tue 11:26:14 AM 38.0214 -78.1247 231° Southwest 430 495 24,300 1,438 Climbing Washington Center
Tue 11:27:15 AM 37.9417 -78.2486 230° Southwest 425 489 26,000 836 Climbing Washington Center
Tue 11:28:16 AM 37.8639 -78.3642 228° Southwest 425 489 26,000  Level Washington Center
Tue 11:29:16 AM 37.7861 -78.4744 230° Southwest 425 489 26,000  Level Washington Center
Tue 11:30:14 AM 37.7017 -78.5997 228° Southwest 431 496 26,000  Level Washington Center
Tue 11:31:15 AM 37.6261 -78.7069 228° Southwest 426 490 26,000  Level Washington Center
Tue 11:32:14 AM 37.5458 -78.8189 229° Southwest 426 490 26,000  Level Washington Center
Tue 11:33:14 AM 37.4678 -78.9306 229° Southwest 426 490 26,000  Level Washington Center
Tue 11:34:15 AM 37.3894 -79.0422 228° Southwest 426 490 26,000  Level Washington Center
Tue 11:35:15 AM 37.3178 -79.1436 226° Southwest 426 490 26,000  Level Washington Center
Tue 11:36:15 AM 37.2353 -79.2492 213° Southwest 426 490 26,000  Level Washington Center
Tue 11:37:16 AM 37.1367 -79.3306 215° Southwest 426 490 26,000  Level Washington Center
Tue 11:38:14 AM 37.0403 -79.4142 212° Southwest 432 497 26,000  Level Washington Center
Tue 11:39:15 AM 36.9375 -79.4950 214° Southwest 437 503 26,000  Level Washington Center
Tue 11:40:15 AM 36.8322 -79.5831 214° Southwest 432 497 26,000  Level Washington Center
Tue 11:41:16 AM 36.7314 -79.6686 212° Southwest 432 497 26,000 -151 Level Washington Center
Tue 11:42:14 AM 36.6328 -79.7461 214° Southwest 432 497 25,700 -958 Descending Washington Center
Tue 11:43:15 AM 36.5339 -79.8289 212° Southwest 432 497 24,100 -1,623 Descending Washington Center
Tue 11:44:16 AM 36.4481 -79.8964 210° Southwest 427 491 22,400 -1,482 Descending Washington Center
Tue 11:44:40 AM 36.3942 -79.9353 214° Southwest 426 490 22,000 -286 Descending Atlanta Center
Tue 11:45:40 AM 36.3131 -80.0039 215° Southwest 401 461 22,000  Level Atlanta Center
Tue 11:46:40 AM 36.2136 -80.0886 216° Southwest 396 456 22,000 -850 Level Atlanta Center
Tue 11:47:40 AM 36.1244 -80.1675 214° Southwest 396 456 20,300 -2,350 Descending Atlanta Center
Tue 11:48:40 AM 36.0392 -80.2383 218° Southwest 389 448 17,300 -3,321 Descending Atlanta Center
Tue 11:49:32 AM 35.9681 -80.3058 213° Southwest 356 410 14,100 -3,146 Descending Atlanta Center
Tue 11:50:02 AM 35.9314 -80.3356 212° Southwest 354 407 13,000 -971 Descending Atlanta Center
Tue 11:50:40 AM 35.8886 -80.3683 221° Southwest 355 409 13,000  Level Atlanta Center
Tue 11:51:03 AM 35.8564 -80.4031 207° Southwest 310 357 13,000  Level Atlanta Center
Tue 11:51:40 AM 35.8214 -80.4253 217° Southwest 315 362 13,000  Level Atlanta Center
Tue 11:51:58 AM 35.7931 -80.4519 211° Southwest 295 339 13,000  Level Atlanta Center
Tue 11:52:40 AM 35.7522 -80.4819 218° Southwest 303 349 13,000 -493 Level Atlanta Center
Tue 11:53:11 AM 35.7136 -80.5194 211° Southwest 293 337 12,400 -700 Descending Atlanta Center
Tue 11:53:40 AM 35.6811 -80.5439 219° Southwest 296 341 12,300 -612 Descending Atlanta Center
Tue 11:54:00 AM 35.6647 -80.5600 187° South 263 303 11,900 -1,100 Descending Atlanta Center
Tue 11:54:40 AM 35.6192 -80.5669 177° South 265 305 11,200 -1,065 Descending Atlanta Center
Tue 11:55:02 AM 35.5961 -80.5653 177° South 242 278 10,800 -1,300 Descending Atlanta Center
Tue 11:55:40 AM 35.5522 -80.5622 182° South 237 273 9,900 -1,612 Descending Atlanta Center
Tue 11:56:09 AM 35.5231 -80.5633 182° South 232 267 9,000 -1,800 Descending Atlanta Center
Tue 11:56:40 AM 35.4897 -80.5647 230° Southwest 232 267 8,100 -1,500 Descending Atlanta Center
Tue 11:57:09 AM 35.4697 -80.5936 224° Southwest 225 259 7,500 -1,300 Descending Atlanta Center
Tue 11:57:40 AM 35.4494 -80.6175 232° Southwest 203 234 6,800 -1,180 Descending Atlanta Center
Tue 11:58:10 AM 35.4314 -80.6461 224° Southwest 201 231 6,300 -800 Descending Atlanta Center
Tue 11:58:40 AM 35.4133 -80.6675 235° Southwest 203 234 6,000 -643 Descending Atlanta Center
Tue 11:59:06 AM 35.4014 -80.6883 226° Southwest 194 223 5,700 -857 Descending Atlanta Center
Tue 11:59:57 AM 35.3708 -80.7267 229° Southwest 187 215 4,900 -930 Descending FAA TRACON SMA TRACON (SMA)
Tue 12:00:17 PM 35.3608 -80.7406 229° Southwest 183 211 4,600 -1,050 Descending FAA TRACON SMA TRACON (SMA)
Tue 12:00:37 PM 35.3483 -80.7581 228° Southwest 179 206 4,200 -900 Descending FAA TRACON SMA TRACON (SMA)
Tue 12:00:57 PM 35.3381 -80.7719 228° Southwest 178 205 4,000 -769 Descending FAA TRACON SMA TRACON (SMA)
Tue 12:01:16 PM 35.3283 -80.7850 229° Southwest 178 205 3,700 -1,105 Descending FAA TRACON SMA TRACON (SMA)
Tue 12:01:35 PM 35.3142 -80.8047 228° Southwest 186 214 3,300 -1,077 Descending FAA TRACON SMA TRACON (SMA)
Tue 12:01:55 PM 35.3033 -80.8197 228° Southwest 188 216 3,000 -878 Descending FAA TRACON SMA TRACON (SMA)
Tue 12:02:16 PM 35.2931 -80.8339 229° Southwest 185 213 2,700 -900 Descending FAA TRACON SMA TRACON (SMA)
Tue 12:02:35 PM 35.2808 -80.8508 227° Southwest 178 205 2,400 -750 Descending FAA TRACON SMA TRACON (SMA)
Tue 12:02:56 PM 35.2717 -80.8631 230° Southwest 174 200 2,200 -750 Descending FAA TRACON SMA TRACON (SMA)
Tue 12:03:15 PM 35.2619 -80.8772 229° Southwest 167 192 1,900 -923 Descending FAA TRACON SMA TRACON (SMA)
Tue 12:03:35 PM 35.2522 -80.8908 226° Southwest 145 167 1,600 -732 Descending FAA TRACON SMA TRACON (SMA)
Tue 12:03:56 PM 35.2444 -80.9008 229° Southwest 134 154 1,400 -600 Descending FAA TRACON SMA TRACON (SMA)
Tue 12:04:15 PM 35.2372 -80.9111 229° Southwest 130 150 1,200 -750 Descending FAA TRACON SMA TRACON (SMA)
Tue 12:04:36 PM 35.2281 -80.9239 226° Southwest 130 150 900 -600 Descending FAA TRACON SMA TRACON (SMA)
Tue 12:04:55 PM 35.2242 -80.9289 226° Southwest 130 150 800 -316 Descending FAA TRACON SMA TRACON (SMA)

Login

Don't have an account? Register now (free) for customized features, flight alerts, and more!